Villa Marina, Puerto Rico
Current Conditions -  °F | °C
As of 4:56 PM on Thursday 18 Dec 2014 (Local Time) from TJSJ Reporting Station
Scattered Clouds Scattered Clouds  
Wind Chill: 79°   Ceiling: Unl
Heat Index: 82°   Visibility: 10mi
Dew Point: 71°   Wind: 10mph
Humidity: 77%   Direction: 80°E
Pressure: 29.97"   Gusts: NA
Location:  18.2551°N, 65.9776°W
Report Text: TJSJ 182056Z 08009KT 10SM SCT034 SCT045 26/22 A2997 RMK AO2 SLP147 VCSH SW P0001 60006 T02610217 56005
Loading
Personal Weather Stations






























Interactive Weather Map New forecast layout! Learn more

10-Day Weather Forecast

Advertisements
Track Severe Weather on mobile